• Join FlightAware (Why Join?)
  • Login
  • US Flag 
10:03AM EDT


 

Airport Tracker/Info


-or-


 

Live Flight TrackerFlight Track Log ✈ UAL33 ✈ 04-Jun-2013 ✈ KIAH - KORD

Flight Track Log - Related Links

Times and Time Zones

All times are in EDT time to prevent confusion due to time zone crossing. See the UAL33 flight status page for this flight to view local times or setup timezone preferences in your user account.

Time Position Orientation Groundspeed Altitude Reporting Facility
EDT Latitude Longitude Course Direction KTS MPH feet Rate Location/Type
05:24PM 29.9782 -95.2963 102° East 170 196 900  Level FlightAware ADS-B
05:24PM 29.9795 -95.2914 73° East 172 198 1,100 1,980 Climbing FlightAware ADS-B
05:24PM 29.9805 -95.2889 65° Northeast 172 198 1,200 3,000 Climbing FlightAware ADS-B
05:24PM 29.9822 -95.2859 57° Northeast 176 203 1,400 2,520 Climbing FlightAware ADS-B
05:25PM 29.9843 -95.2835 45° Northeast 179 206 1,500 2,220 Climbing FlightAware ADS-B
05:25PM 29.9869 -95.2811 39° Northeast 182 209 1,700 1,980 Climbing FlightAware ADS-B
05:25PM 29.9909 -95.2787 27° Northeast 188 216 1,800 1,200 Climbing FlightAware ADS-B
05:25PM 29.9948 -95.2772 18° North 192 221 1,900 1,620 Climbing FlightAware ADS-B
05:25PM 30.0003 -95.2765 North 207 238 2,100 1,980 Climbing FlightAware ADS-B
05:25PM 30.0036 -95.2765 360° North 214 246 2,200 840 Climbing FlightAware ADS-B
05:25PM 30.0077 -95.2769 355° North 221 254 2,200 1,200 Level FlightAware ADS-B
05:25PM 30.0192 -95.2792 350° North 240 276 2,500 1,740 Climbing FlightAware ADS-B
05:25PM 30.0259 -95.2813 345° North 247 284 2,700 2,760 Climbing FlightAware ADS-B
05:25PM 30.0334 -95.2848 338° Northwest 253 291 3,100 3,000 Climbing FlightAware ADS-B
05:25PM 30.0387 -95.2879 333° Northwest 255 293 3,300 2,400 Climbing FlightAware ADS-B
05:26PM 30.0438 -95.2916 328° Northwest 261 300 3,500 1,440 Climbing FlightAware ADS-B
05:26PM 30.0742 -95.3141 329° Northwest 278 320 4,100 780 Climbing FlightAware ADS-B
05:26PM 30.0916 -95.3254 331° Northwest 280 322 4,100 720 Level FlightAware ADS-B
05:27PM 30.1615 -95.3748 327° Northwest 283 326 5,100 1,560 Climbing FlightAware ADS-B
05:28PM 30.1785 -95.3875 327° Northwest 280 322 6,200 3,780 Climbing FlightAware ADS-B
05:28PM 30.1978 -95.4019 327° Northwest 286 329 7,200 3,480 Climbing FlightAware ADS-B
05:29PM 30.2495 -95.4398 327° Northwest 286 329 9,900 3,120 Climbing FlightAware ADS-B
05:31PM 30.4040 -95.5543 327° Northwest 338 389 16,100 2,940 Climbing FlightAware ADS-B
05:32PM 30.5213 -95.6413 328° Northwest 366 421 20,200 2,760 Climbing FlightAware ADS-B
05:32PM 30.5512 -95.6602 331° Northwest 374 430 21,000 2,340 Climbing FlightAware ADS-B
05:33PM 30.6488 -95.7125 335° Northwest 394 453 23,400 2,340 Climbing FlightAware ADS-B
05:35PM 30.8059 -95.7968 335° Northwest 419 482 27,000 2,280 Climbing FlightAware ADS-B
05:36PM 30.9137 -95.8547 335° Northwest 428 493 29,300 2,220 Climbing FlightAware ADS-B
05:37PM 30.9682 -95.8839 335° Northwest 434 499 30,400 1,980 Climbing FlightAware ADS-B
05:37PM 31.0243 -95.9141 335° Northwest 439 505 31,300 1,740 Climbing FlightAware ADS-B
05:38PM 31.0812 -95.9448 335° Northwest 446 513 32,200 1,680 Climbing FlightAware ADS-B
05:38PM 31.1218 -95.9635 338° Northwest 453 521 32,800 1,500 Climbing FlightAware ADS-B
05:39PM 31.2281 -95.9921 349° North 467 537 34,000 1,440 Climbing FlightAware ADS-B
05:39PM 31.2920 -96.0072 349° North 470 541 34,800 1,560 Climbing FlightAware ADS-B
05:40PM 31.3669 -96.0246 349° North 472 543 35,700 1,680 Climbing FlightAware ADS-B
05:42PM 31.6080 -96.0810 349° North 454 522 39,100 1,740 Climbing FlightAware
05:42PM 31.6280 -96.0860 348° North 458 527 39,300 960 Climbing FlightAware ADS-B
05:42PM 31.6987 -96.1027 349° North 458 527 39,800 600 Climbing FlightAware ADS-B
05:43PM 31.7667 -96.1187 349° North 461 531 40,000 540 Climbing FlightAware ADS-B
05:44PM 31.8820 -96.1460 349° North 467 537 40,600 600 Climbing FlightAware
05:44PM 31.9026 -96.1507 349° North 468 539 40,700 420 Climbing FlightAware ADS-B
05:45PM 31.9932 -96.1724 349° North 471 542 41,000 120 Climbing FlightAware ADS-B
05:46PM 32.1427 -96.2078 349° North 472 543 41,000  Level FlightAware ADS-B
05:46PM 32.1699 -96.2129 351° North 475 547 41,000  Level FlightAware ADS-B
05:47PM 32.3128 -96.2195 359° North 479 551 41,000  Level FlightAware ADS-B
05:48PM 32.4200 -96.2210 359° North 478 550 41,000  Level FlightAware
05:50PM 32.6150 -96.2230 360° North 477 549 41,000  Level FlightAware
05:50PM 32.7070 -96.2240 359° North 476 548 41,000  Level FlightAware
05:52PM 32.8830 -96.2260 359° North 474 545 41,000  Level FlightAware
05:52PM 32.9770 -96.2270 359° North 473 544 41,000  Level FlightAware
05:53PM 33.0990 -96.2210 North 487 560 41,000  Level FlightAware
05:54PM 33.1880 -96.1750 23° Northeast 500 575 41,000  Level FlightAware
05:55PM 33.2790 -96.1160 28° Northeast 498 573 41,000  Level FlightAware
05:55PM 33.3352 -96.0796 28° Northeast 499 574 41,000  Level FlightAware ADS-B
05:56PM 33.4440 -96.0100 28° Northeast 496 571 41,000  Level FlightAware
05:57PM 33.5310 -95.9530 29° Northeast 494 568 41,000  Level FlightAware
05:57PM 33.6130 -95.9000 28° Northeast 495 570 41,000  Level FlightAware
05:58PM 33.7000 -95.8430 29° Northeast 496 571 41,000  Level FlightAware
05:59PM 33.7810 -95.7910 28° Northeast 493 567 41,000  Level FlightAware
05:59PM 33.8660 -95.7350 29° Northeast 493 567 41,000  Level FlightAware
06:00PM 33.9814 -95.6594 29° Northeast 496 571 41,000  Level FlightAware ADS-B
06:01PM 34.0670 -95.6030 29° Northeast 494 568 41,000  Level FlightAware
06:02PM 34.1510 -95.5470 29° Northeast 494 568 41,000  Level FlightAware
06:02PM 34.2270 -95.4980 28° Northeast 494 568 41,000  Level FlightAware
06:03PM 34.3120 -95.4410 29° Northeast 494 568 41,000  Level FlightAware
06:04PM 34.3830 -95.3950 28° Northeast 494 568 41,000  Level FlightAware
06:05PM 34.4660 -95.3420 28° Northeast 494 568 41,000  Level FlightAware
06:05PM 34.5200 -95.3070 28° Northeast 494 568 41,000  Level FlightAware
06:06PM 34.6030 -95.2540 28° Northeast 494 568 41,000  Level FlightAware
06:07PM 34.6660 -95.2130 28° Northeast 494 568 41,000  Level FlightAware
06:08PM 34.8340 -95.0940 30° Northeast 496 571 41,000  Level FlightAware
06:08PM 34.9220 -95.0340 29° Northeast 495 570 41,000  Level FlightAware
06:09PM 35.0120 -94.9730 29° Northeast 496 571 41,000  Level FlightAware
06:10PM 35.0860 -94.9230 29° Northeast 496 571 41,000  Level FlightAware
06:10PM 35.0440 -94.9520 209° Southwest 495 570 41,000  Level FlightAware
06:11PM 35.3090 -94.7710 29° Northeast 493 567 41,000  Level FlightAware
06:12PM 35.4100 -94.7030 29° Northeast 493 567 41,000  Level FlightAware
06:13PM 35.5000 -94.6410 29° Northeast 492 566 41,000  Level FlightAware
06:14PM 35.5860 -94.5820 29° Northeast 492 566 41,000  Level FlightAware
06:15PM 35.6740 -94.5220 29° Northeast 494 568 41,000  Level FlightAware
06:15PM 35.7570 -94.4650 29° Northeast 495 570 41,000  Level FlightAware
06:16PM 35.8370 -94.4090 30° Northeast 496 571 41,000  Level FlightAware
06:17PM 35.9250 -94.3480 29° Northeast 497 572 41,000  Level FlightAware
06:17PM 35.9960 -94.2990 29° Northeast 498 573 41,000  Level FlightAware
06:18PM 36.0900 -94.2340 29° Northeast 500 575 41,000  Level FlightAware
06:19PM 36.1740 -94.1750 30° Northeast 502 578 41,000  Level FlightAware
06:19PM 36.2640 -94.1120 29° Northeast 504 580 41,000  Level FlightAware
06:20PM 36.3420 -94.0570 30° Northeast 506 582 41,000  Level FlightAware
06:21PM 36.4340 -93.9920 30° Northeast 505 581 41,000  Level FlightAware
06:21PM 36.5150 -93.9350 29° Northeast 506 582 41,000  Level FlightAware
06:22PM 36.6050 -93.8720 29° Northeast 508 585 41,000  Level FlightAware
06:23PM 36.6870 -93.8140 30° Northeast 507 583 41,000  Level FlightAware
06:24PM 36.7730 -93.7530 30° Northeast 505 581 41,000  Level FlightAware
06:24PM 36.8670 -93.6850 30° Northeast 504 580 41,000  Level FlightAware
06:25PM 36.9510 -93.6250 30° Northeast 503 579 41,000  Level FlightAware
06:26PM 37.0280 -93.5700 30° Northeast 503 579 41,000  Level FlightAware
06:26PM 37.1070 -93.5140 29° Northeast 501 577 41,000  Level FlightAware
06:27PM 37.1970 -93.4490 30° Northeast 501 577 41,000  Level FlightAware
06:28PM 37.2900 -93.3820 30° Northeast 503 579 41,000  Level FlightAware
06:29PM 37.3700 -93.3200 32° Northeast 507 583 41,000  Level FlightAware
06:29PM 37.4520 -93.2450 36° Northeast 507 583 41,000  Level FlightAware
06:30PM 37.5290 -93.1740 36° Northeast 506 582 41,000  Level FlightAware
06:31PM 37.6110 -93.0990 36° Northeast 505 581 41,000  Level FlightAware
06:31PM 37.6870 -93.0280 36° Northeast 505 581 41,000  Level FlightAware
06:32PM 37.7620 -92.9590 36° Northeast 504 580 41,000  Level FlightAware
06:33PM 37.8370 -92.8880 37° Northeast 505 581 41,000  Level FlightAware
06:33PM 37.9180 -92.8120 37° Northeast 505 581 41,000  Level FlightAware
06:34PM 38.0060 -92.7300 36° Northeast 507 583 41,000  Level FlightAware
06:35PM 38.0690 -92.6710 36° Northeast 508 585 41,000  Level FlightAware
06:36PM 38.1580 -92.5860 37° Northeast 508 585 41,000  Level FlightAware
06:36PM 38.2400 -92.5090 36° Northeast 508 585 41,000  Level FlightAware
06:37PM 38.3340 -92.4210 36° Northeast 508 585 41,000  Level FlightAware
06:38PM 38.3920 -92.3670 36° Northeast 508 585 41,000  Level FlightAware
06:39PM 38.4720 -92.2930 36° Northeast 508 585 41,000  Level FlightAware
06:39PM 38.5730 -92.1920 38° Northeast 507 583 41,000  Level FlightAware
06:40PM 38.6710 -92.1000 36° Northeast 507 583 41,000  Level FlightAware
06:41PM 38.7310 -92.0450 36° Northeast 507 583 41,000  Level FlightAware
06:42PM 38.8080 -91.9730 36° Northeast 507 583 41,000  Level FlightAware
06:42PM 38.9300 -91.8470 39° Northeast 511 588 41,000  Level FlightAware
06:43PM 39.0090 -91.7700 37° Northeast 511 588 41,000  Level FlightAware
06:44PM 39.1040 -91.6770 37° Northeast 511 588 41,000  Level FlightAware
06:45PM 39.1760 -91.6070 37° Northeast 511 588 41,000  Level FlightAware
06:45PM 39.2350 -91.5500 37° Northeast 511 588 41,000  Level FlightAware
06:46PM 39.3550 -91.4310 37° Northeast 509 586 41,000  Level FlightAware
06:47PM 39.4320 -91.3560 37° Northeast 509 586 41,000 -1,380 Level FlightAware
06:48PM 39.5210 -91.2670 38° Northeast 503 579 39,000 -2,160 Descending FlightAware
06:48PM 39.6050 -91.1840 37° Northeast 502 578 38,100 -1,080 Descending FlightAware
06:49PM 39.6820 -91.1070 38° Northeast 494 568 37,500 -540 Descending FlightAware
06:50PM 39.7410 -91.0480 38° Northeast 494 568 37,400 -780 Descending FlightAware
06:50PM 39.8280 -90.9600 38° Northeast 481 554 36,500 -1,020 Descending FlightAware
06:51PM 39.9020 -90.8860 37° Northeast 474 545 35,900 -840 Descending FlightAware
06:52PM 40.0030 -90.7830 38° Northeast 468 539 35,100 -660 Descending FlightAware
06:53PM 40.0710 -90.7150 37° Northeast 463 533 34,900 -1,200 Descending FlightAware
06:53PM 40.1400 -90.6450 38° Northeast 484 557 33,500 -1,260 Descending FlightAware
06:54PM 40.2040 -90.5810 37° Northeast 492 566 33,200 -420 Descending FlightAware
06:55PM 40.2850 -90.4980 38° Northeast 523 602 33,000 -180 Descending FlightAware
06:56PM 40.3810 -90.3990 38° Northeast 527 606 33,000  Level FlightAware
06:56PM 40.4630 -90.3150 38° Northeast 529 609 33,000  Level FlightAware
06:57PM 40.5370 -90.2380 38° Northeast 517 595 33,000 -660 Level FlightAware
06:58PM 40.6160 -90.1570 38° Northeast 522 601 32,100 -1,680 Descending FlightAware
06:58PM 40.6910 -90.0790 38° Northeast 510 587 30,800 -2,040 Descending FlightAware
06:59PM 40.7760 -89.9910 38° Northeast 508 585 29,300 -1,620 Descending FlightAware
07:00PM 40.8490 -89.9140 39° Northeast 508 585 28,500 -1,020 Descending FlightAware
07:00PM 40.9160 -89.8450 38° Northeast 503 579 28,000 -1,200 Descending FlightAware
07:01PM 40.9970 -89.7460 43° Northeast 497 572 26,900 -2,160 Descending FlightAware
07:02PM 41.0550 -89.6360 55° Northeast 482 555 24,800 -2,700 Descending FlightAware
07:03PM 41.1030 -89.5410 56° Northeast 466 536 23,100 -2,580 Descending FlightAware
07:03PM 41.1490 -89.4460 57° Northeast 449 517 21,400 -2,820 Descending FlightAware
07:04PM 41.2000 -89.3450 56° Northeast 440 506 19,200 -2,640 Descending FlightAware
07:05PM 41.2450 -89.2530 57° Northeast 446 513 17,700 -1,980 Descending FlightAware
07:05PM 41.2890 -89.1640 57° Northeast 440 506 16,500 -2,040 Descending FlightAware
07:06PM 41.3420 -89.0570 57° Northeast 431 496 14,800 -2,220 Descending FlightAware
07:07PM 41.3800 -88.9780 57° Northeast 424 488 13,600 -2,040 Descending FlightAware
07:07PM 41.4260 -88.8840 57° Northeast 411 473 12,100 -1,620 Descending FlightAware
07:08PM 41.4730 -88.7880 57° Northeast 393 452 11,200 -900 Descending FlightAware
07:09PM 41.5080 -88.7160 57° Northeast 371 427 10,900 -300 Descending FlightAware
07:10PM 41.5400 -88.6370 62° Northeast 329 379 10,800 -120 Descending FlightAware
07:10PM 41.5730 -88.5530 62° Northeast 320 368 10,800  Level FlightAware
07:11PM 41.5990 -88.4910 61° Northeast 320 368 10,800 -600 Level FlightAware
07:12PM 41.6420 -88.4250 49° Northeast 313 360 10,000 -1,260 Descending FlightAware
07:12PM 41.6750 -88.3900 38° Northeast 309 356 9,400 -1,260 Descending FlightAware
07:12PM 41.6920 -88.3710 40° Northeast 307 353 9,100 -1,200 Descending FlightAware
07:13PM 41.7240 -88.3470 29° Northeast 300 345 8,600 -1,200 Descending FlightAware
07:13PM 41.7430 -88.3380 19° North 298 343 8,300 -960 Descending FlightAware
07:14PM 41.7810 -88.3290 10° North 284 327 7,900 -720 Descending FlightAware
07:14PM 41.7970 -88.3290 360° North 263 303 7,800  Descending FlightAware
07:14PM 41.8270 -88.3300 359° North 219 252 7,900  Climbing FlightAware
07:14PM 41.8330 -88.3300 360° North 215 247 7,800 -1,800 Descending FlightAware
07:15PM 41.8690 -88.3290 North 207 238 6,600 -2,220 Descending FlightAware
07:15PM 41.8960 -88.3310 357° North 209 241 5,600 -2,100 Descending FlightAware
07:16PM 41.9080 -88.3280 11° North 209 241 5,200 -1,560 Descending FlightAware
07:16PM 41.9170 -88.3190 37° Northeast 205 236 4,900 -600 Descending FlightAware
07:16PM 41.9350 -88.2880 52° Northeast 193 222 4,800 -240 Descending FlightAware
07:17PM 41.9490 -88.2630 53° Northeast 193 222 4,700 -480 Descending FlightAware
07:17PM 41.9570 -88.2480 54° Northeast 193 222 4,500 -720 Descending FlightAware
07:18PM 41.9680 -88.2210 61° Northeast 175 201 4,200 -660 Descending FlightAware
07:18PM 41.9680 -88.1760 90° East 170 196 3,800 -480 Descending FlightAware
07:19PM 41.9680 -88.1450 90° East 173 199 3,700 -660 Descending FlightAware
07:19PM 41.9680 -88.1150 90° East 174 200 3,200 -1,020 Descending FlightAware
07:20PM 41.9690 -88.0860 87° East 160 184 2,800 -960 Descending FlightAware
07:20PM 41.9690 -88.0740 90° East 156 180 2,600 -960 Descending FlightAware
07:20PM 41.9690 -88.0450 90° East 144 166 2,100 -840 Descending FlightAware
07:21PM 41.9690 -88.0150 90° East 131 151 1,700 -660 Descending FlightAware
07:22PM 41.9690 -87.9700 90° East 131 151 1,100 -720 Descending FlightAware
07:22PM 41.9690 -87.9410 90° East 133 153 700 -660 Descending FlightAware
07:23PM 41.9690 -87.9240 90° East 128 147 500 -240 Descending FlightAware
07:23PM 41.9690 -87.9010 90° East 125 144 500  Level FlightAware